^^
Datos históricos de la estación: Murcia-Puente Tocinos
Diario Informe para Septiembre 16, 2019 Unidades:  Métrico    Ingés   Ambas
Diario Semanal Mensual Anual
  Máxima: Mínima: Promedio:
Temperatura: 24.5 °C 13.8 °C 17.9 °C
Punto de rocio: 13.8 °C 1.3 °C 11.1 °C
Humedad: 90% 22.3% 68%
Velocidad viento: 27km/h 0km/h 9.5km/h
Racha viento: 46.7km/h - -
Viento- - SE
Presión: 1018.2 hPa 1014.4 hPa -
Precipitación: 0.0 mm    
 
 
Tabla de datos para Septiembre 16, 2019
Hora Temperatura Punto de rocio Presión Viento Velocidad viento Racha viento Humedad Intensidad lluvia(por hora) Nubes
00:04 15.8 °C 13.8 °C 1014.6 hPa NE 7.6 km/h 11.3 km/h 88% 0.0 mm
00:09 15.7 °C 13.8 °C 1014.6 hPa NE 7.1 km/h 11.3 km/h 88% 0.0 mm
00:14 15.7 °C 13.7 °C 1014.6 hPa NE 6.5 km/h 13.7 km/h 88% 0.0 mm
00:19 15.7 °C 13.7 °C 1014.6 hPa NE 6.9 km/h 14.5 km/h 88% 0.0 mm
00:24 15.7 °C 13.7 °C 1014.6 hPa NE 7.6 km/h 11.3 km/h 88% 0.0 mm
00:29 15.6 °C 13.6 °C 1014.6 hPa NE 7.3 km/h 11.3 km/h 88% 0.0 mm
00:34 15.6 °C 13.6 °C 1014.6 hPa NE 6.9 km/h 11.3 km/h 88% 0.0 mm
00:39 15.6 °C 13.6 °C 1014.6 hPa NE 6 km/h 8 km/h 88% 0.0 mm
00:44 15.5 °C 13.5 °C 1014.6 hPa NE 4.7 km/h 8 km/h 88% 0.0 mm
00:49 15.4 °C 13.5 °C 1014.8 hPa NE 3.9 km/h 6.4 km/h 88% 0.0 mm
00:54 15.4 °C 13.4 °C 1014.8 hPa NE 2.9 km/h 4.8 km/h 88% 0.0 mm
00:59 15.4 °C 13.4 °C 1014.8 hPa NE 2.6 km/h 4.8 km/h 88% 0.0 mm
01:04 15.4 °C 13.4 °C 1014.9 hPa NE 2.2 km/h 4.8 km/h 88% 0.0 mm
01:09 15.4 °C 13.4 °C 1014.9 hPa NE 1.3 km/h 2.3 km/h 88% 0.0 mm
01:14 15.3 °C 13.4 °C 1014.9 hPa Calm   1.6 km/h 88.2% 0.0 mm
01:19 15.3 °C 13.5 °C 1014.9 hPa Calm     89% 0.0 mm
01:24 15.3 °C 13.5 °C 1014.8 hPa Calm     89% 0.0 mm
01:29 15.3 °C 13.5 °C 1014.8 hPa Calm     89% 0.0 mm
01:34 15.3 °C 13.5 °C 1014.9 hPa Calm     89% 0.0 mm
01:39 15.3 °C 13.5 °C 1014.9 hPa Calm     89% 0.0 mm
01:44 15.3 °C 13.5 °C 1014.9 hPa Calm     89% 0.0 mm
01:49 15.3 °C 13.5 °C 1014.9 hPa Calm     89% 0.0 mm
01:54 15.3 °C 13.5 °C 1014.8 hPa Calm     89% 0.0 mm
01:59 15.2 °C 13.4 °C 1014.8 hPa Calm     89% 0.0 mm
02:04 15.2 °C 13.4 °C 1014.8 hPa Calm     89% 0.0 mm
02:09 15.2 °C 13.4 °C 1014.8 hPa Calm     89% 0.0 mm
02:14 15.2 °C 13.4 °C 1014.8 hPa Calm     89% 0.0 mm
02:19 15.2 °C 13.3 °C 1014.8 hPa Calm     89% 0.0 mm
02:24 15.1 °C 13.3 °C 1014.8 hPa Calm     89% 0.0 mm
02:29 15.1 °C 13.3 °C 1014.8 hPa Calm     89% 0.0 mm
02:34 15 °C 13.2 °C 1014.8 hPa Calm     89% 0.0 mm
02:39 15 °C 13.2 °C 1014.8 hPa Calm     89% 0.0 mm
02:44 14.9 °C 13.1 °C 1014.8 hPa Calm     89% 0.0 mm
02:49 14.9 °C 13.1 °C 1014.8 hPa Calm     89% 0.0 mm
02:54 14.9 °C 13.1 °C 1014.7 hPa Calm     89% 0.0 mm
02:59 14.8 °C 13 °C 1014.7 hPa Calm   6.4 km/h 89% 0.0 mm
03:04 14.8 °C 13 °C 1014.7 hPa Calm   8 km/h 89% 0.0 mm
03:09 14.8 °C 13 °C 1014.6 hPa NNE 0.9 km/h 8 km/h 89% 0.0 mm
03:14 14.7 °C 12.9 °C 1014.6 hPa NNE 2.2 km/h 4.8 km/h 89% 0.0 mm
03:19 14.7 °C 12.9 °C 1014.6 hPa NNE 1.3 km/h 6.4 km/h 89% 0.0 mm
03:24 14.6 °C 12.8 °C 1014.4 hPa Calm   8 km/h 89% 0.0 mm
03:29 14.5 °C 12.8 °C 1014.4 hPa ENE 1.2 km/h 8 km/h 89% 0.0 mm
03:34 14.5 °C 12.8 °C 1014.4 hPa ENE 2.9 km/h 4.8 km/h 89.6% 0.0 mm
03:39 14.6 °C 13 °C 1014.4 hPa ENE 1.7 km/h   90% 0.0 mm
03:44 14.6 °C 12.9 °C 1014.4 hPa Calm   3.9 km/h 89.6% 0.0 mm
03:49 14.6 °C 12.8 °C 1014.4 hPa Calm   3.2 km/h 89% 0.0 mm
03:54 14.6 °C 12.8 °C 1014.4 hPa Calm     89% 0.0 mm
03:59 14.6 °C 12.6 °C 1014.4 hPa Calm     88% 0.0 mm
04:04 14.6 °C 12.6 °C 1014.4 hPa Calm   5.8 km/h 88% 0.0 mm
04:09 14.6 °C 12.6 °C 1014.4 hPa SSE 1.4 km/h 7.6 km/h 88% 0.0 mm
04:14 14.6 °C 12.6 °C 1014.4 hPa Sur 3.2 km/h 8 km/h 88% 0.0 mm
04:19 14.6 °C 12.5 °C 1014.5 hPa Sur 3.8 km/h 9.5 km/h 87.6% 0.0 mm
04:24 14.5 °C 12.4 °C 1014.5 hPa Sur 4.6 km/h 9.7 km/h 87% 0.0 mm
04:29 14.4 °C 12.3 °C 1014.5 hPa Sur 5.1 km/h 11.9 km/h 87% 0.0 mm
04:34 14.4 °C 12.3 °C 1014.7 hPa SSO 5.8 km/h 11.3 km/h 87.2% 0.0 mm
04:39 14.4 °C 12.4 °C 1014.7 hPa SSO 6.3 km/h 11.3 km/h 88% 0.0 mm
04:44 14.4 °C 12.4 °C 1014.7 hPa SSO 6.9 km/h 11.3 km/h 88% 0.0 mm
04:49 14.4 °C 12.5 °C 1014.8 hPa SSO 6.9 km/h 11.1 km/h 88% 0.0 mm
04:54 14.4 °C 12.4 °C 1014.8 hPa SSO 6.9 km/h 14 km/h 88% 0.0 mm
04:59 14.4 °C 12.4 °C 1014.8 hPa SSO 7.8 km/h 14.8 km/h 88% 0.0 mm
05:04 14.4 °C 12.4 °C 1014.8 hPa SSO 8.7 km/h 14.5 km/h 88% 0.0 mm
05:09 14.4 °C 12.4 °C 1014.8 hPa SO 8.2 km/h 14.5 km/h 88% 0.0 mm
05:14 14.4 °C 12.5 °C 1014.8 hPa SSO 7.6 km/h 14.8 km/h 88% 0.0 mm
05:19 14.5 °C 12.6 °C 1014.9 hPa SSO 7.9 km/h 14.5 km/h 88% 0.0 mm
05:24 14.6 °C 12.6 °C 1014.9 hPa SO 8.4 km/h 11.3 km/h 88% 0.0 mm
05:29 14.6 °C 12.6 °C 1014.9 hPa OSO 7.6 km/h 11.3 km/h 88% 0.0 mm
05:34 14.6 °C 12.6 °C 1015.0 hPa SO 6.5 km/h 10 km/h 88% 0.0 mm
05:39 14.6 °C 12.6 °C 1015.0 hPa SO 6.7 km/h 11.9 km/h 88% 0.0 mm
05:44 14.6 °C 12.6 °C 1015.0 hPa SSO 6.9 km/h 11.3 km/h 88% 0.0 mm
05:49 14.7 °C 12.7 °C 1015.2 hPa SSO 6.7 km/h 13 km/h 88% 0.0 mm
05:54 14.7 °C 12.7 °C 1015.2 hPa SSO 6.5 km/h 13 km/h 88% 0.0 mm
05:59 14.7 °C 12.7 °C 1015.2 hPa OSO 6.5 km/h 12.9 km/h 88% 0.0 mm
06:04 14.7 °C 12.7 °C 1015.2 hPa SO 6.5 km/h 11.1 km/h 88% 0.0 mm
06:09 14.7 °C 12.7 °C 1015.2 hPa SSO 6.2 km/h 11.3 km/h 88% 0.0 mm
06:14 14.7 °C 12.7 °C 1015.2 hPa SSO 5.8 km/h 10 km/h 88% 0.0 mm
06:19 14.7 °C 12.7 °C 1015.2 hPa SSO 6.2 km/h 11.9 km/h 88% 0.0 mm
06:24 14.7 °C 12.7 °C 1015.2 hPa SSO 6.9 km/h 11.3 km/h 88% 0.0 mm
06:29 14.7 °C 12.8 °C 1015.2 hPa Sur 7.6 km/h 14.8 km/h 88% 0.0 mm
06:34 14.8 °C 12.8 °C 1015.4 hPa SSO 8.4 km/h 14.5 km/h 87.5% 0.0 mm
06:39 14.8 °C 12.7 °C 1015.4 hPa SSO 8 km/h 13 km/h 87% 0.0 mm
06:44 14.9 °C 12.6 °C 1015.4 hPa OSO 7.6 km/h 12.9 km/h 86.2% 0.0 mm
06:49 14.9 °C 12.6 °C 1015.4 hPa OSO 6.8 km/h 9.7 km/h 86% 0.0 mm
06:54 14.8 °C 12.5 °C 1015.3 hPa SO 5.8 km/h 9.7 km/h 85.8% 0.0 mm
06:59 14.8 °C 12.3 °C 1015.3 hPa OSO 5.2 km/h 8 km/h 85% 0.0 mm
07:04 14.8 °C 12.2 °C 1015.4 hPa ONO 4.6 km/h 8 km/h 84.5% 0.0 mm
07:09 14.7 °C 12 °C 1015.4 hPa NO 3.6 km/h 9.3 km/h 84.1% 0.0 mm
07:14 14.3 °C 11.8 °C 1015.4 hPa NE 2.2 km/h 9.7 km/h 84.9% 0.0 mm
07:19 14.1 °C 11.8 °C 1015.7 hPa NNE 2.9 km/h 8 km/h 86% 0.0 mm
07:24 13.9 °C 11.6 °C 1015.7 hPa NNE 3.9 km/h 5.6 km/h 86.1% 0.0 mm
07:29 13.8 °C 11.6 °C 1015.7 hPa NNE 3.2 km/h 5.6 km/h 86.5% 0.0 mm
07:34 13.8 °C 11.7 °C 1016.1 hPa ONO 2.2 km/h 5.8 km/h 87% 0.0 mm
07:39 13.8 °C 11.7 °C 1016.1 hPa OSO 2.5 km/h 7.4 km/h 87.2% 0.0 mm
07:44 13.8 °C 11.8 °C 1016.1 hPa SO 2.9 km/h 8 km/h 87.6% 0.0 mm
07:49 13.9 °C 11.8 °C 1016.2 hPa SE 2.9 km/h 9.3 km/h 87% 0.0 mm
07:54 14 °C 11.7 °C 1016.2 hPa SE 2.9 km/h 9.7 km/h 85.9% 0.0 mm
07:59 14.1 °C 11.6 °C 1016.2 hPa SSE 3.1 km/h 8 km/h 85% 0.0 mm
08:04 14.2 °C 11.6 °C 1016.2 hPa SSE 3.2 km/h 8 km/h 84.4% 0.0 mm
08:09 14.3 °C 11.7 °C 1016.2 hPa SSE 2.8 km/h 9.5 km/h 84.4% 0.0 mm
08:14 14.4 °C 11.4 °C 1016.2 hPa ESE 2.2 km/h 11.1 km/h 82.2% 0.0 mm
08:19 14.2 °C 11.2 °C 1016.5 hPa SE 4 km/h 13 km/h 82% 0.0 mm
08:24 14.3 °C 11.2 °C 1016.5 hPa SSE 6.5 km/h 14.8 km/h 81.7% 0.0 mm
08:29 14.8 °C 11.1 °C 1016.5 hPa Sur 7.4 km/h 13 km/h 78.8% 0.0 mm
08:34 15.2 °C 11.2 °C 1016.8 hPa SSO 8.7 km/h 13.7 km/h 77.5% 0.0 mm
08:39 15.3 °C 11.1 °C 1016.8 hPa SSO 9 km/h 14.8 km/h 76.2% 0.0 mm
08:44 15.6 °C 11 °C 1016.8 hPa SO 9.5 km/h 14.8 km/h 74.5% 0.0 mm
08:49 15.8 °C 11 °C 1016.9 hPa SO 9 km/h 14.5 km/h 73% 0.0 mm
08:54 16.2 °C 10.8 °C 1016.9 hPa SO 8.4 km/h 14.8 km/h 70.7% 0.0 mm
08:59 16.5 °C 10.7 °C 1016.9 hPa SO 8.4 km/h 14.5 km/h 68.9% 0.0 mm
09:04 16.8 °C 10.7 °C 1017.0 hPa SO 8.4 km/h 14.5 km/h 67.3% 0.0 mm
09:09 17 °C 10.5 °C 1017.0 hPa OSO 7.8 km/h 13 km/h 65.6% 0.0 mm
09:14 17.3 °C 10.5 °C 1017.0 hPa Oeste 6.9 km/h 14.8 km/h 64.4% 0.0 mm
09:19 17.5 °C 10.3 °C 1017.1 hPa ONO 7.5 km/h 18 km/h 62.5% 0.0 mm
09:24 17.9 °C 9.7 °C 1017.1 hPa NO 8.4 km/h 20.4 km/h 58.7% 0.0 mm
09:29 18.3 °C 9.6 °C 1017.1 hPa ONO 9.2 km/h 20.9 km/h 57% 0.0 mm
09:34 18.6 °C 9.4 °C 1017.3 hPa NO 10.3 km/h 20.4 km/h 55.4% 0.0 mm
09:39 18.7 °C 9.2 °C 1017.3 hPa ONO 10.3 km/h 22.2 km/h 53.8% 0.0 mm
09:44 18.9 °C 8.9 °C 1017.3 hPa ONO 10.3 km/h 22.5 km/h 52.2% 0.0 mm
09:49 19.1 °C 8.8 °C 1017.3 hPa ONO 10.2 km/h 20.4 km/h 51.5% 0.0 mm
09:54 19.1 °C 8.5 °C 1017.3 hPa ONO 10 km/h 20.9 km/h 50.3% 0.0 mm
09:59 19.2 °C 8.8 °C 1017.3 hPa NO 10.1 km/h 20.9 km/h 50.9% 0.0 mm
10:04 19.3 °C 8.7 °C 1017.3 hPa ONO 10.3 km/h 17.2 km/h 50.2% 0.0 mm
10:09 19.4 °C 8.4 °C 1017.1 hPa Oeste 10 km/h 17.7 km/h 49.1% 0.0 mm
10:14 19.5 °C 8.7 °C 1017.1 hPa NO 9.5 km/h 20.9 km/h 49.7% 0.0 mm
10:19 19.7 °C 8.6 °C 1017.2 hPa NO 10.6 km/h 24.5 km/h 48.8% 0.0 mm
10:24 19.8 °C 8.4 °C 1017.2 hPa ONO 12.2 km/h 29.1 km/h 48% 0.0 mm
10:29 19.8 °C 8.1 °C 1017.2 hPa ONO 13.8 km/h 29 km/h 46.9% 0.0 mm
10:34 19.8 °C 8.2 °C 1017.2 hPa ONO 16.1 km/h 27.4 km/h 47% 0.0 mm
10:39 19.8 °C 8.2 °C 1017.2 hPa ONO 16.2 km/h 27.8 km/h 47% 0.0 mm
10:44 19.9 °C 8.2 °C 1017.2 hPa NO 16.4 km/h 27.4 km/h 47% 0.0 mm
10:49 20.1 °C 8.2 °C 1017.2 hPa NO 15.3 km/h 23.7 km/h 46.4% 0.0 mm
10:54 20.3 °C 8.3 °C 1017.1 hPa ONO 13.7 km/h 24.5 km/h 46% 0.0 mm
10:59 20.4 °C 8.1 °C 1017.1 hPa ONO 13.7 km/h 24.1 km/h 45.2% 0.0 mm
11:04 20.5 °C 8.1 °C 1017.2 hPa ONO 13.7 km/h 24.1 km/h 44.8% 0.0 mm
11:09 20.8 °C 8 °C 1017.2 hPa ONO 13.1 km/h 24.1 km/h 43.8% 0.0 mm
11:14 20.7 °C 7.9 °C 1017.2 hPa ONO 12.2 km/h 24.1 km/h 43.7% 0.0 mm
11:19 20.8 °C 8 °C 1017.2 hPa NO 12.8 km/h 22.5 km/h 43.6% 0.0 mm
11:24 21.1 °C 8 °C 1017.1 hPa NO 13.7 km/h 22.5 km/h 43% 0.0 mm
11:29 21.2 °C 7.7 °C 1017.1 hPa ONO 13.8 km/h 24.1 km/h 41.9% 0.0 mm
11:34 21.2 °C 7.4 °C 1017.1 hPa NO 14 km/h 24.1 km/h 40.8% 0.0 mm
11:39 21.4 °C 7.5 °C 1017.0 hPa NO 13.6 km/h 22.5 km/h 40.7% 0.0 mm
11:44 21.6 °C 7.4 °C 1017.0 hPa ONO 13 km/h 22.5 km/h 40% 0.0 mm
11:49 21.7 °C 6.6 °C 1017.1 hPa ONO 11.9 km/h 22.5 km/h 37.5% 0.0 mm
11:54 21.8 °C 5.8 °C 1017.1 hPa NO 10.3 km/h 20.9 km/h 35.4% 0.0 mm
11:59 21.9 °C 6.2 °C 1017.1 hPa NO 11.6 km/h 22.5 km/h 36.1% 0.0 mm
12:04 22 °C 5.7 °C 1017.1 hPa NO 13 km/h 22.5 km/h 34.7% 0.0 mm
12:09 22.2 °C 4.7 °C 1017.0 hPa ONO 12.2 km/h 22.5 km/h 31.9% 0.0 mm
12:14 22.3 °C 5 °C 1017.0 hPa NNO 11.1 km/h 22.5 km/h 32.4% 0.0 mm
12:19 22.3 °C 5.3 °C 1017.0 hPa NNO 10.7 km/h 22.5 km/h 33% 0.0 mm
12:24 22.4 °C 5.5 °C 1016.9 hPa NNE 10.3 km/h 19.3 km/h 33.2% 0.0 mm
12:29 22.7 °C 5.4 °C 1016.9 hPa NNO 9.5 km/h 20.4 km/h 32.7% 0.0 mm
12:34 22.7 °C 5.2 °C 1016.9 hPa ONO 8.4 km/h 20.9 km/h 32.2% 0.0 mm
12:39 22.7 °C 5.2 °C 1016.8 hPa Oeste 7.3 km/h 14.5 km/h 32% 0.0 mm
12:44 22.9 °C 5.5 °C 1016.8 hPa NO 5.8 km/h 14.5 km/h 32.2% 0.0 mm
12:49 23.1 °C 5.8 °C 1016.8 hPa NO 6.2 km/h 13.7 km/h 32.7% 0.0 mm
12:54 22.9 °C 5.6 °C 1016.7 hPa NNO 6.9 km/h 14.5 km/h 32.6% 0.0 mm
12:59 23.1 °C 5.6 °C 1016.7 hPa NNO 6.7 km/h 12.9 km/h 32.4% 0.0 mm
13:04 23.2 °C 5.2 °C 1016.7 hPa SO 6.5 km/h 11.1 km/h 31.1% 0.0 mm
13:09 23.1 °C 5.1 °C 1016.7 hPa ESE 6.5 km/h 13 km/h 31% 0.0 mm
13:14 23.1 °C 4.9 °C 1016.7 hPa Este 6.5 km/h 12.9 km/h 30.6% 0.0 mm
13:19 23.2 °C 5.1 °C 1016.7 hPa Este 5.7 km/h 8 km/h 31% 0.0 mm
13:24 23.5 °C 5.4 °C 1016.4 hPa SSE 4.7 km/h 10.3 km/h 30.9% 0.0 mm
13:29 23.7 °C 5.2 °C 1016.4 hPa SSO 4.7 km/h 11.3 km/h 30.1% 0.0 mm
13:34 23.7 °C 5.1 °C 1016.4 hPa Sur 4.6 km/h 13 km/h 30% 0.0 mm
13:39 23.7 °C 4.9 °C 1016.3 hPa OSO 5.8 km/h 13 km/h 29.6% 0.0 mm
13:44 23.6 °C 4.7 °C 1016.3 hPa OSO 7.6 km/h 12.9 km/h 29.5% 0.0 mm
13:49 23.7 °C 4.6 °C 1016.3 hPa SO 7.1 km/h 11.3 km/h 29% 0.0 mm
13:54 24 °C 4.2 °C 1016.2 hPa ESE 6.5 km/h 14.8 km/h 27.8% 0.0 mm
13:59 23.9 °C 3.4 °C 1016.2 hPa Este 7 km/h 14.5 km/h 26.2% 0.0 mm
14:04 24.1 °C 3 °C 1016.2 hPa SE 7.6 km/h 15.6 km/h 25.2% 0.0 mm
14:09 24.1 °C 2 °C 1016.0 hPa SSE 7.6 km/h 16.1 km/h 23.6% 0.0 mm
14:14 24.2 °C 1.3 °C 1016.0 hPa SSO 7.6 km/h 12.9 km/h 22.3% 0.0 mm
14:19 24.5 °C 2.7 °C 1016.0 hPa SSE 6.1 km/h 13 km/h 24.2% 0.0 mm
14:24 24.5 °C 3.6 °C 1016.0 hPa ENE 3.9 km/h 13 km/h 25.7% 0.0 mm
14:29 24.4 °C 3.3 °C 1016.0 hPa NE 5.4 km/h 14.8 km/h 25.3% 0.0 mm
14:34 24.4 °C 7.5 °C 1016.0 hPa NE 7.6 km/h 27.8 km/h 34.2% 0.0 mm
14:39 24 °C 9.2 °C 1016.0 hPa NE 10 km/h 35.2 km/h 39% 0.0 mm
14:44 23.8 °C 9.3 °C 1016.0 hPa NE 13.7 km/h 35.4 km/h 39.8% 0.0 mm
14:49 23.5 °C 9.4 °C 1016.0 hPa NE 16.3 km/h 37 km/h 40.7% 0.0 mm
14:54 23.2 °C 9.9 °C 1016.0 hPa NE 20.1 km/h 39.6 km/h 43% 0.0 mm
14:59 23.1 °C 10 °C 1016.0 hPa NE 21.3 km/h 40.2 km/h 43.4% 0.0 mm
15:04 22.8 °C 10.5 °C 1016.0 hPa NE 22.5 km/h 41.2 km/h 45.9% 0.0 mm
15:09 22.7 °C 10.9 °C 1015.9 hPa NE 23.3 km/h 41.8 km/h 47.2% 0.0 mm
15:14 22.4 °C 11.2 °C 1015.9 hPa NE 24.5 km/h 41.8 km/h 49% 0.0 mm
15:19 22.3 °C 11.8 °C 1015.9 hPa NNE 24.5 km/h 46.3 km/h 51.6% 0.0 mm
15:24 21.9 °C 11.7 °C 1015.9 hPa NE 24.5 km/h 46.7 km/h 52.2% 0.0 mm
15:29 21.9 °C 11.5 °C 1015.9 hPa NE 25.6 km/h 41.8 km/h 51.5% 0.0 mm
15:34 21.8 °C 12 °C 1016.1 hPa NE 27 km/h 42.6 km/h 53.7% 0.0 mm
15:39 21.6 °C 12.4 °C 1016.1 hPa NE 26.2 km/h 42.6 km/h 55.8% 0.0 mm
15:44 21.5 °C 12.4 °C 1016.1 hPa NE 25.1 km/h 40.2 km/h 56.5% 0.0 mm
15:49 21.5 °C 12.6 °C 1016.1 hPa NE 24.4 km/h 38.9 km/h 57% 0.0 mm
15:54 21.3 °C 12.7 °C 1016.0 hPa ENE 23.3 km/h 38.6 km/h 57.9% 0.0 mm
15:59 21.3 °C 12.8 °C 1016.0 hPa ENE 21.7 km/h 37 km/h 58.4% 0.0 mm
16:04 21.3 °C 12.8 °C 1016.0 hPa NE 19.8 km/h 37 km/h 58.6% 0.0 mm
16:09 21.3 °C 12.9 °C 1016.0 hPa ENE 19.5 km/h 37 km/h 58.7% 0.0 mm
16:14 21 °C 12.7 °C 1016.0 hPa ENE 19 km/h 35.4 km/h 59% 0.0 mm
16:19 20.8 °C 12.7 °C 1016.2 hPa ENE 19 km/h 38.9 km/h 59.8% 0.0 mm
16:24 20.5 °C 12.6 °C 1016.2 hPa NE 19 km/h 38.6 km/h 60.8% 0.0 mm
16:29 20.5 °C 12.7 °C 1016.2 hPa ENE 18.6 km/h 37 km/h 61% 0.0 mm
16:34 20.3 °C 12.7 °C 1016.2 hPa NE 18 km/h 42.3 km/h 61.5% 0.0 mm
16:39 20.1 °C 12.6 °C 1016.2 hPa NE 19.6 km/h 42.3 km/h 61.9% 0.0 mm
16:44 19.8 °C 12.5 °C 1016.2 hPa NE 21.7 km/h 42.6 km/h 62.8% 0.0 mm
16:49 19.7 °C 12.5 °C 1016.2 hPa NE 22.4 km/h 41.8 km/h 63% 0.0 mm
16:54 19.7 °C 12.4 °C 1016.1 hPa NE 23.3 km/h 37 km/h 63% 0.0 mm
16:59 19.7 °C 12.4 °C 1016.1 hPa ENE 20.9 km/h 37 km/h 62.6% 0.0 mm
17:04 19.8 °C 12.4 °C 1016.2 hPa ENE 18.4 km/h 35.2 km/h 62.1% 0.0 mm
17:09 19.9 °C 12.5 °C 1016.2 hPa NE 18.2 km/h 40.7 km/h 62.4% 0.0 mm
17:14 19.8 °C 12.3 °C 1016.2 hPa ENE 18 km/h 40.2 km/h 62.2% 0.0 mm
17:19 19.6 °C 12.4 °C 1016.2 hPa ENE 18.4 km/h 37 km/h 63% 0.0 mm
17:24 19.7 °C 12.5 °C 1016.1 hPa ENE 19 km/h 32.8 km/h 63% 0.0 mm
17:29 19.5 °C 12.1 °C 1016.1 hPa ENE 17.8 km/h 33.8 km/h 62.2% 0.0 mm
17:34 19.6 °C 12.1 °C 1016.3 hPa ENE 16.1 km/h 30.6 km/h 62.2% 0.0 mm
17:39 19.6 °C 12.1 °C 1016.3 hPa ENE 15.2 km/h 30.6 km/h 62% 0.0 mm
17:44 19.7 °C 12 °C 1016.3 hPa ENE 14 km/h 30.6 km/h 61.2% 0.0 mm
17:49 19.7 °C 12 °C 1016.3 hPa ENE 14.9 km/h 28.6 km/h 61.3% 0.0 mm
17:54 19.6 °C 11.7 °C 1016.1 hPa NE 16.1 km/h 33.3 km/h 60.3% 0.0 mm
17:59 19.5 °C 11.7 °C 1016.1 hPa ENE 16.2 km/h 33.8 km/h 60.8% 0.0 mm
18:04 19.4 °C 11.5 °C 1016.1 hPa NE 16.4 km/h 33.8 km/h 60.2% 0.0 mm
18:09 19.4 °C 11.7 °C 1015.9 hPa NE 17.2 km/h 35.9 km/h 60.9% 0.0 mm
18:14 19.4 °C 11.4 °C 1015.9 hPa ENE 18.4 km/h 35.4 km/h 60% 0.0 mm
18:19 19.3 °C 11.3 °C 1016.1 hPa NE 18.4 km/h 35.4 km/h 60% 0.0 mm
18:24 19.3 °C 11.2 °C 1016.1 hPa Este 18.4 km/h 29.6 km/h 59.2% 0.0 mm
18:29 19.4 °C 11.1 °C 1016.1 hPa NE 17.4 km/h 31.7 km/h 58.9% 0.0 mm
18:34 19.2 °C 11 °C 1016.1 hPa NE 16.1 km/h 32.2 km/h 59% 0.0 mm
18:39 19.3 °C 11.1 °C 1016.0 hPa ENE 17.2 km/h 32.2 km/h 59% 0.0 mm
18:44 19.3 °C 11.1 °C 1016.0 hPa NE 19 km/h 32.3 km/h 59% 0.0 mm
18:49 19.3 °C 11 °C 1016.0 hPa NE 17.8 km/h 33.8 km/h 58.5% 0.0 mm
18:54 19.2 °C 10.9 °C 1015.9 hPa ENE 16.1 km/h 27.4 km/h 58.5% 0.0 mm
18:59 19.3 °C 11.1 °C 1015.9 hPa ENE 15.1 km/h 25.7 km/h 59% 0.0 mm
19:04 19.3 °C 11.3 °C 1015.9 hPa ENE 14 km/h 24.1 km/h 60% 0.0 mm
19:09 19.3 °C 11.3 °C 1015.9 hPa NE 12.5 km/h 27.8 km/h 59.5% 0.0 mm
19:14 19.2 °C 11.1 °C 1015.9 hPa NE 10.3 km/h 27.4 km/h 59.4% 0.0 mm
19:19 19.1 °C 11.2 °C 1015.9 hPa NE 12.6 km/h 25.7 km/h 60% 0.0 mm
19:24 19.1 °C 11.1 °C 1015.9 hPa NE 16.1 km/h 25.9 km/h 60% 0.0 mm
19:29 18.9 °C 11 °C 1015.9 hPa NE 15.6 km/h 25.7 km/h 60.3% 0.0 mm
19:34 18.9 °C 11 °C 1016.1 hPa ENE 14.8 km/h 22.5 km/h 60.2% 0.0 mm
19:39 18.8 °C 11 °C 1016.1 hPa NE 14.1 km/h 25.9 km/h 60.6% 0.0 mm
19:44 18.7 °C 11 °C 1016.1 hPa ENE 13 km/h 26.2 km/h 60.9% 0.0 mm
19:49 18.6 °C 10.9 °C 1016.2 hPa NE 13.7 km/h 25.7 km/h 61% 0.0 mm
19:54 18.5 °C 11 °C 1016.2 hPa NE 14.8 km/h 22.5 km/h 61.6% 0.0 mm
19:59 18.5 °C 11.1 °C 1016.2 hPa NE 13.4 km/h 22.5 km/h 62.3% 0.0 mm
20:04 18.4 °C 11.2 °C 1016.3 hPa NE 11.9 km/h 19.3 km/h 63% 0.0 mm
20:09 18.3 °C 11.3 °C 1016.3 hPa NE 12 km/h 20.4 km/h 63.7% 0.0 mm
20:14 18.2 °C 11.5 °C 1016.3 hPa NE 12.2 km/h 20.9 km/h 64.8% 0.0 mm
20:19 18.1 °C 11.7 °C 1016.3 hPa NE 12.6 km/h 20.9 km/h 66.1% 0.0 mm
20:24 17.9 °C 11.8 °C 1016.3 hPa NE 13 km/h 20.9 km/h 67.3% 0.0 mm
20:29 17.8 °C 12.2 °C 1016.3 hPa NE 13 km/h 24.1 km/h 69.8% 0.0 mm
20:34 17.6 °C 12.5 °C 1016.3 hPa NE 13 km/h 24.5 km/h 71.9% 0.0 mm
20:39 17.4 °C 12.6 °C 1016.3 hPa NE 13.4 km/h 25.9 km/h 73.6% 0.0 mm
20:44 17.2 °C 12.7 °C 1016.3 hPa NE 14 km/h 25.7 km/h 74.8% 0.0 mm
20:49 17.1 °C 12.8 °C 1016.6 hPa NE 14.3 km/h 22.5 km/h 75.8% 0.0 mm
20:54 17 °C 12.9 °C 1016.6 hPa NE 14.8 km/h 23.7 km/h 76.8% 0.0 mm
20:59 16.9 °C 12.8 °C 1016.6 hPa NE 13.6 km/h 24.1 km/h 77% 0.0 mm
21:04 16.8 °C 12.9 °C 1016.9 hPa NE 12.2 km/h 19.3 km/h 77.8% 0.0 mm
21:09 16.7 °C 12.8 °C 1016.9 hPa NE 12.1 km/h 20.9 km/h 78% 0.0 mm
21:14 16.7 °C 12.9 °C 1016.9 hPa NE 11.9 km/h 20.9 km/h 78.5% 0.0 mm
21:19 16.6 °C 12.9 °C 1017.0 hPa NE 11.6 km/h 20.4 km/h 79% 0.0 mm
21:24 16.5 °C 12.8 °C 1017.0 hPa NE 11.1 km/h 20.9 km/h 79% 0.0 mm
21:29 16.4 °C 12.7 °C 1017.0 hPa NE 11.1 km/h 17.7 km/h 79% 0.0 mm
21:34 16.4 °C 12.9 °C 1017.1 hPa NE 11.1 km/h 17.2 km/h 79.7% 0.0 mm
21:39 16.3 °C 12.9 °C 1017.1 hPa NE 10.8 km/h 18.5 km/h 80% 0.0 mm
21:44 16.3 °C 12.8 °C 1017.1 hPa NE 10.3 km/h 19.3 km/h 80% 0.0 mm
21:49 16.2 °C 12.8 °C 1017.2 hPa NE 10 km/h 14.5 km/h 80.4% 0.0 mm
21:54 16.2 °C 12.9 °C 1017.2 hPa NE 9.5 km/h 16.1 km/h 81% 0.0 mm
21:59 16.2 °C 12.9 °C 1017.2 hPa NE 9.1 km/h 16.7 km/h 81% 0.0 mm
22:04 16.1 °C 13 °C 1017.4 hPa NE 8.7 km/h 16.1 km/h 82% 0.0 mm
22:09 16 °C 12.9 °C 1017.4 hPa NE 9 km/h 16.1 km/h 82% 0.0 mm
22:14 15.9 °C 12.8 °C 1017.4 hPa NE 9.5 km/h 14.5 km/h 82% 0.0 mm
22:19 15.9 °C 13 °C 1017.7 hPa NNE 8.7 km/h 12.9 km/h 82.9% 0.0 mm
22:24 15.8 °C 13 °C 1017.7 hPa NE 7.6 km/h 11.3 km/h 83% 0.0 mm
22:29 15.8 °C 13.1 °C 1017.7 hPa NE 7.1 km/h 11.3 km/h 83.9% 0.0 mm
22:34 15.7 °C 13.1 °C 1017.8 hPa NE 6.5 km/h 11.9 km/h 84.2% 0.0 mm
22:39 15.7 °C 13.2 °C 1017.8 hPa NE 6.6 km/h 11.9 km/h 85% 0.0 mm
22:44 15.6 °C 13.2 °C 1017.8 hPa NE 6.9 km/h 11.3 km/h 85.5% 0.0 mm
22:49 15.6 °C 13.3 °C 1018.1 hPa NNE 6.9 km/h 11.3 km/h 86% 0.0 mm
22:54 15.6 °C 13.3 °C 1018.1 hPa NE 6.9 km/h 13 km/h 86% 0.0 mm
22:59 15.6 °C 13.3 °C 1018.1 hPa NNE 6.9 km/h 12.9 km/h 86% 0.0 mm
23:04 15.6 °C 13.3 °C 1018.2 hPa NNE 6.9 km/h 13 km/h 86.4% 0.0 mm
23:09 15.5 °C 13.3 °C 1018.2 hPa NE 7.2 km/h 13 km/h 87% 0.0 mm
23:14 15.5 °C 13.3 °C 1018.2 hPa NE 7.6 km/h 13.7 km/h 87% 0.0 mm
23:19 15.4 °C 13.2 °C 1018.2 hPa NE 7.9 km/h 14.8 km/h 87% 0.0 mm
23:24 15.4 °C 13.2 °C 1018.2 hPa NNE 8.4 km/h 16.7 km/h 87% 0.0 mm
23:29 15.4 °C 13.2 °C 1018.2 hPa NE 8.8 km/h 16.1 km/h 87% 0.0 mm
23:34 15.4 °C 13.2 °C 1018.2 hPa NE 9.5 km/h 16.1 km/h 87% 0.0 mm
23:39 15.4 °C 13.2 °C 1018.0 hPa NE 9.1 km/h 14.5 km/h 86.9% 0.0 mm
23:44 15.4 °C 13 °C 1018.0 hPa NE 8.4 km/h 13 km/h 86% 0.0 mm
23:49 15.4 °C 13.1 °C 1018.1 hPa NE 8 km/h 13 km/h 86% 0.0 mm
23:54 15.4 °C 13.1 °C 1018.1 hPa NE 7.6 km/h 13.7 km/h 86% 0.0 mm
23:59 15.4 °C 12.9 °C 1018.1 hPa NE 8 km/h 14.5 km/h 85.2% 0.0 mm
Murcia-Puente Tocinos, España
Compliments of Weather Underground - 3 mb

La estación de MeteoMurcia.com, publica sus datos en los siguientes proyectos:

Weather Underground PWS IMURCIAP2 Meteoclimatic www.awekas.at

W3Counter
Web Analytics